createdAt,value
2022-08-05T00:06:03.006Z,3.30
2022-08-05T00:10:54.682Z,3.17
2022-08-05T00:16:20.190Z,3.25
2022-08-05T00:22:00.415Z,3.38
2022-08-05T00:27:36.250Z,3.53
2022-08-05T00:33:01.717Z,3.33
2022-08-05T00:38:28.959Z,3.00
2022-08-05T00:43:58.088Z,3.13
2022-08-05T00:49:24.673Z,3.13
2022-08-05T00:54:56.288Z,3.28
2022-08-05T01:00:21.898Z,3.47
2022-08-05T01:05:47.046Z,3.78
2022-08-05T01:11:14.332Z,3.28
2022-08-05T01:16:52.464Z,3.28
2022-08-05T01:22:27.780Z,3.10
2022-08-05T01:28:13.933Z,3.22
2022-08-05T01:33:43.419Z,2.60
2022-08-05T01:39:14.429Z,3.03
2022-08-05T01:45:02.225Z,3.00
2022-08-05T01:50:29.771Z,3.25
2022-08-05T01:55:57.099Z,3.45
2022-08-05T02:01:25.464Z,3.60
2022-08-05T02:06:51.822Z,3.60
2022-08-05T02:12:22.136Z,3.60
2022-08-05T02:18:32.320Z,4.13
2022-08-05T02:23:41.365Z,3.60
2022-08-05T02:29:07.043Z,3.45
2022-08-05T02:34:54.888Z,3.80
2022-08-05T02:40:19.804Z,4.07
2022-08-05T02:45:52.930Z,3.80
2022-08-05T02:51:20.136Z,3.95
2022-08-05T02:56:53.435Z,3.35
2022-08-05T03:02:20.790Z,4.30
2022-08-05T03:08:00.959Z,2.85
2022-08-05T03:13:52.172Z,3.30
2022-08-05T03:19:20.375Z,3.60
2022-08-05T03:25:02.320Z,3.15
2022-08-05T03:30:43.983Z,4.00
2022-08-05T03:36:12.261Z,3.97
2022-08-05T03:41:38.633Z,3.25
2022-08-05T03:47:08.958Z,3.47
2022-08-05T03:55:00.109Z,3.90
2022-08-05T03:58:29.959Z,3.87
2022-08-05T04:04:05.345Z,3.17
2022-08-05T04:09:36.683Z,3.67
2022-08-05T04:15:01.939Z,3.03
2022-08-05T04:20:27.442Z,3.53
2022-08-05T04:26:00.705Z,3.33
2022-08-05T04:31:27.625Z,3.20
2022-08-05T04:37:03.246Z,3.60
2022-08-05T04:42:27.065Z,3.53
2022-08-05T04:47:52.071Z,4.20
2022-08-05T04:53:17.393Z,3.83
2022-08-05T04:58:41.026Z,4.05
2022-08-05T05:04:06.628Z,4.28
2022-08-05T05:09:31.080Z,4.20
2022-08-05T05:14:55.434Z,3.95
2022-08-05T05:20:20.544Z,3.78
2022-08-05T05:25:45.730Z,3.30
2022-08-05T05:31:11.537Z,3.40
2022-08-05T05:36:37.412Z,3.78
2022-08-05T05:42:01.146Z,2.80
2022-08-05T05:47:30.285Z,2.35
2022-08-05T05:53:22.308Z,3.53
2022-08-05T05:58:47.917Z,2.45
2022-08-05T06:04:14.922Z,2.40
2022-08-05T06:10:01.695Z,2.75
2022-08-05T06:15:24.341Z,2.45
2022-08-05T06:20:48.147Z,2.40
2022-08-05T06:26:21.431Z,2.35
2022-08-05T06:31:47.619Z,2.65
2022-08-05T06:37:14.967Z,2.70
2022-08-05T06:42:40.333Z,2.33
2022-08-05T06:48:36.410Z,2.33
2022-08-05T06:53:53.512Z,2.38
2022-08-05T06:59:18.898Z,2.63
2022-08-05T07:04:42.570Z,2.47
2022-08-05T07:10:14.960Z,1.90
2022-08-05T07:16:01.904Z,2.03
2022-08-05T07:21:28.407Z,1.77
2022-08-05T07:27:12.032Z,2.10
2022-08-05T07:32:38.145Z,2.40
2022-08-05T07:38:01.813Z,2.08
2022-08-05T07:43:25.503Z,2.22
2022-08-05T07:49:03.302Z,2.22
2022-08-05T07:54:30.186Z,2.50
2022-08-05T07:59:55.673Z,1.92
2022-08-05T08:05:20.759Z,2.28
2022-08-05T08:10:44.430Z,2.05
2022-08-05T08:16:49.872Z,1.63
2022-08-05T08:21:57.867Z,2.10
2022-08-05T08:27:22.061Z,2.20
2022-08-05T08:33:02.731Z,2.13
2022-08-05T08:38:35.238Z,2.33
2022-08-05T08:45:18.979Z,1.77
2022-08-05T08:50:05.964Z,2.10
2022-08-05T08:56:02.630Z,1.98
2022-08-05T09:01:19.959Z,2.00
2022-08-05T09:06:43.728Z,1.88
2022-08-05T09:12:20.639Z,2.00
2022-08-05T09:17:53.090Z,2.08
2022-08-05T09:23:21.531Z,2.20
2022-08-05T09:28:49.380Z,2.42
2022-08-05T09:34:13.819Z,2.17
2022-08-05T09:39:45.008Z,2.30
2022-08-05T09:45:17.597Z,1.98
2022-08-05T09:50:44.451Z,2.47
2022-08-05T09:56:13.108Z,2.28
2022-08-05T10:01:45.780Z,2.30
2022-08-05T10:07:20.847Z,2.30
2022-08-05T10:12:56.735Z,2.20
2022-08-05T10:18:23.750Z,2.25
2022-08-05T10:23:59.645Z,2.37
2022-08-05T10:30:06.694Z,2.13
2022-08-05T10:35:10.030Z,2.05
2022-08-05T10:40:44.976Z,2.17
2022-08-05T10:46:10.539Z,2.20
2022-08-05T10:51:58.301Z,1.92
2022-08-05T10:57:32.465Z,1.83
2022-08-05T11:03:23.410Z,2.00
2022-08-05T11:09:16.572Z,2.05
2022-08-05T11:15:11.713Z,2.38
2022-08-05T11:20:39.139Z,2.17
2022-08-05T11:26:09.176Z,1.90
2022-08-05T11:31:57.341Z,2.20
2022-08-05T11:38:26.110Z,2.60
2022-08-05T11:44:06.729Z,2.70
2022-08-05T11:49:14.760Z,1.95
2022-08-05T11:54:41.630Z,2.08
2022-08-05T12:05:51.139Z,2.20
2022-08-05T12:11:20.458Z,2.10
2022-08-05T12:16:47.328Z,1.88
2022-08-05T12:22:12.573Z,1.77
2022-08-05T12:27:53.133Z,2.25
2022-08-05T12:33:27.422Z,2.40
2022-08-05T12:38:51.991Z,1.90
2022-08-05T12:44:21.510Z,2.10
2022-08-05T12:50:04.403Z,2.25
2022-08-05T12:55:32.897Z,2.00
2022-08-05T13:02:02.758Z,2.00
2022-08-05T13:06:51.587Z,2.20
2022-08-05T13:12:17.712Z,1.98
2022-08-05T13:17:42.555Z,2.20
2022-08-05T13:23:07.940Z,2.00
2022-08-05T13:28:32.184Z,1.98
2022-08-05T13:34:23.462Z,2.30
2022-08-05T13:40:16.031Z,2.22
2022-08-05T13:45:24.822Z,2.13
2022-08-05T13:51:06.411Z,1.92
2022-08-05T13:56:31.473Z,2.50
2022-08-05T14:01:59.031Z,2.10
2022-08-05T14:07:59.499Z,1.80
2022-08-05T14:13:10.039Z,1.95
2022-08-05T14:18:39.085Z,1.95
2022-08-05T14:24:03.300Z,1.90
2022-08-05T14:29:31.417Z,2.10
2022-08-05T14:34:56.903Z,1.80
2022-08-05T14:40:21.436Z,1.80
2022-08-05T14:45:49.616Z,2.33
2022-08-05T14:51:16.131Z,2.60
2022-08-05T14:56:44.323Z,2.00
2022-08-05T15:02:14.873Z,2.20
2022-08-05T15:08:12.274Z,1.98
2022-08-05T15:13:28.588Z,1.90
2022-08-05T15:19:23.282Z,1.80
2022-08-05T15:24:47.670Z,2.20
2022-08-05T15:30:14.210Z,2.13
2022-08-05T15:35:45.324Z,2.30
2022-08-05T15:41:21.998Z,1.90
2022-08-05T15:46:47.202Z,2.25
2022-08-05T15:52:29.383Z,2.30
2022-08-05T15:57:59.379Z,2.35
2022-08-05T16:03:23.354Z,2.13
2022-08-05T16:08:50.385Z,2.63
2022-08-05T16:14:17.210Z,2.00
2022-08-05T16:20:05.378Z,2.30
2022-08-05T16:25:33.797Z,1.95
2022-08-05T16:30:58.596Z,2.10
2022-08-05T16:36:23.868Z,2.10
2022-08-05T16:42:15.414Z,1.90
2022-08-05T16:47:40.813Z,2.05
2022-08-05T16:53:23.350Z,2.70
2022-08-05T16:58:57.853Z,2.20
2022-08-05T17:04:21.482Z,2.60
2022-08-05T17:09:58.085Z,2.30
2022-08-05T17:15:24.089Z,1.92
2022-08-05T17:20:53.325Z,2.30
2022-08-05T17:26:17.095Z,2.00
2022-08-05T17:31:58.315Z,2.28
2022-08-05T17:37:40.897Z,2.45
2022-08-05T17:43:07.629Z,2.67
2022-08-05T17:48:35.297Z,2.67
2022-08-05T17:54:00.344Z,2.28
2022-08-05T17:59:23.969Z,2.47
2022-08-05T18:04:51.393Z,3.00
2022-08-05T18:10:20.730Z,3.03
2022-08-05T18:15:45.002Z,3.22
2022-08-05T18:21:21.106Z,3.13
2022-08-05T18:26:46.709Z,3.00
2022-08-05T18:32:12.998Z,3.25
2022-08-05T18:37:39.998Z,2.70
2022-08-05T18:43:05.214Z,2.40
2022-08-05T18:48:33.288Z,2.73
2022-08-05T18:53:58.491Z,2.53
2022-08-05T18:59:43.777Z,2.65
2022-08-05T19:06:06.066Z,3.33
2022-08-05T19:10:52.473Z,3.40
2022-08-05T19:16:24.536Z,3.28
2022-08-05T19:21:51.653Z,3.00
2022-08-05T19:27:16.848Z,2.90
2022-08-05T19:32:45.286Z,3.13
2022-08-05T19:38:09.481Z,3.20
2022-08-05T19:44:05.888Z,3.15
2022-08-05T19:49:18.689Z,3.30
2022-08-05T19:54:42.653Z,3.45
2022-08-05T20:00:10.555Z,3.72
2022-08-05T20:05:42.908Z,2.80
2022-08-05T20:11:07.667Z,2.33
2022-08-05T20:16:32.726Z,3.00
2022-08-05T20:21:56.761Z,3.10
2022-08-05T20:27:21.084Z,3.88
2022-08-05T20:32:52.074Z,3.05
2022-08-05T20:38:22.812Z,3.30
2022-08-05T20:43:58.610Z,3.20
2022-08-05T20:49:27.927Z,3.47
2022-08-05T20:55:15.828Z,3.50
2022-08-05T21:00:41.219Z,3.00
2022-08-05T21:06:27.772Z,2.80
2022-08-05T21:12:09.346Z,3.10
2022-08-05T21:17:35.268Z,3.20
2022-08-05T21:23:00.927Z,3.13
2022-08-05T21:28:30.757Z,2.95
2022-08-05T21:33:55.105Z,3.33
2022-08-05T21:39:26.503Z,3.10
2022-08-05T21:44:51.691Z,3.30
2022-08-05T21:50:15.903Z,3.00
2022-08-05T21:56:01.175Z,3.08
2022-08-05T22:01:26.250Z,2.53
2022-08-05T22:06:50.562Z,2.70
2022-08-05T22:12:15.671Z,2.80
2022-08-05T22:17:48.777Z,2.90
2022-08-05T22:24:01.836Z,3.33
2022-08-05T22:29:30.697Z,3.20
2022-08-05T22:34:56.808Z,3.35
2022-08-05T22:40:20.670Z,3.00
2022-08-05T22:45:46.742Z,3.05
2022-08-05T22:51:16.067Z,3.53
2022-08-05T22:56:46.688Z,3.20
2022-08-05T23:02:16.914Z,3.35
2022-08-05T23:07:44.833Z,3.25
2022-08-05T23:13:12.091Z,2.97
2022-08-05T23:18:38.517Z,3.13
2022-08-05T23:24:03.812Z,2.95
2022-08-05T23:29:35.459Z,3.42
2022-08-05T23:35:01.716Z,3.22
2022-08-05T23:40:27.210Z,2.58
2022-08-05T23:45:51.140Z,3.20
2022-08-05T23:51:16.171Z,3.28
2022-08-05T23:56:39.847Z,3.20
